sensor_id;sensor_type;location;lat;lon;timestamp;P1;durP1;ratioP1;P2;durP2;ratioP2
69703;SDS011;56967;43.538;-5.646;2023-04-25T00:01:20;17.58;;;4.70;;
69703;SDS011;56967;43.538;-5.646;2023-04-25T00:03:49;16.63;;;5.32;;
69703;SDS011;56967;43.538;-5.646;2023-04-25T00:06:15;17.55;;;4.90;;
69703;SDS011;56967;43.538;-5.646;2023-04-25T00:08:40;13.77;;;4.88;;
69703;SDS011;56967;43.538;-5.646;2023-04-25T00:11:06;27.83;;;5.30;;
69703;SDS011;56967;43.538;-5.646;2023-04-25T00:13:32;10.88;;;4.50;;
69703;SDS011;56967;43.538;-5.646;2023-04-25T00:15:57;10.25;;;4.38;;
69703;SDS011;56967;43.538;-5.646;2023-04-25T00:18:23;8.23;;;4.38;;
69703;SDS011;56967;43.538;-5.646;2023-04-25T00:20:49;7.38;;;4.43;;
69703;SDS011;56967;43.538;-5.646;2023-04-25T00:23:15;9.63;;;4.65;;
69703;SDS011;56967;43.538;-5.646;2023-04-25T00:25:45;9.32;;;4.90;;
69703;SDS011;56967;43.538;-5.646;2023-04-25T00:28:13;7.28;;;4.13;;
69703;SDS011;56967;43.538;-5.646;2023-04-25T00:30:39;8.18;;;4.93;;
69703;SDS011;56967;43.538;-5.646;2023-04-25T00:33:05;7.35;;;4.95;;
69703;SDS011;56967;43.538;-5.646;2023-04-25T00:35:31;9.65;;;4.80;;
69703;SDS011;56967;43.538;-5.646;2023-04-25T00:37:57;8.30;;;4.78;;
69703;SDS011;56967;43.538;-5.646;2023-04-25T00:40:22;6.70;;;4.57;;
69703;SDS011;56967;43.538;-5.646;2023-04-25T00:42:49;7.78;;;4.80;;
69703;SDS011;56967;43.538;-5.646;2023-04-25T00:45:19;6.38;;;4.55;;
69703;SDS011;56967;43.538;-5.646;2023-04-25T00:47:45;6.28;;;3.80;;
69703;SDS011;56967;43.538;-5.646;2023-04-25T00:50:11;9.55;;;4.50;;
69703;SDS011;56967;43.538;-5.646;2023-04-25T00:52:37;6.40;;;4.22;;
69703;SDS011;56967;43.538;-5.646;2023-04-25T00:55:05;9.27;;;4.55;;
69703;SDS011;56967;43.538;-5.646;2023-04-25T00:57:31;6.03;;;4.07;;
69703;SDS011;56967;43.538;-5.646;2023-04-25T00:59:57;11.00;;;4.55;;
69703;SDS011;56967;43.538;-5.646;2023-04-25T01:02:23;7.53;;;3.75;;
69703;SDS011;56967;43.538;-5.646;2023-04-25T01:04:50;8.00;;;4.47;;
69703;SDS011;56967;43.538;-5.646;2023-04-25T01:07:16;9.15;;;4.20;;
69703;SDS011;56967;43.538;-5.646;2023-04-25T01:09:41;6.05;;;4.10;;
69703;SDS011;56967;43.538;-5.646;2023-04-25T01:12:07;8.35;;;4.75;;
69703;SDS011;56967;43.538;-5.646;2023-04-25T01:14:32;8.43;;;4.35;;
69703;SDS011;56967;43.538;-5.646;2023-04-25T01:16:58;9.18;;;4.53;;
69703;SDS011;56967;43.538;-5.646;2023-04-25T01:19:24;6.95;;;4.63;;
69703;SDS011;56967;43.538;-5.646;2023-04-25T01:21:50;10.43;;;4.43;;
69703;SDS011;56967;43.538;-5.646;2023-04-25T01:24:16;7.65;;;4.43;;
69703;SDS011;56967;43.538;-5.646;2023-04-25T01:26:42;8.00;;;4.03;;
69703;SDS011;56967;43.538;-5.646;2023-04-25T01:29:17;9.73;;;3.95;;
69703;SDS011;56967;43.538;-5.646;2023-04-25T01:31:44;9.43;;;4.18;;
69703;SDS011;56967;43.538;-5.646;2023-04-25T01:34:11;6.85;;;4.47;;
69703;SDS011;56967;43.538;-5.646;2023-04-25T01:36:37;6.75;;;4.32;;
69703;SDS011;56967;43.538;-5.646;2023-04-25T01:39:03;8.45;;;4.25;;
69703;SDS011;56967;43.538;-5.646;2023-04-25T01:41:29;6.57;;;4.22;;
69703;SDS011;56967;43.538;-5.646;2023-04-25T01:43:54;8.05;;;3.83;;
69703;SDS011;56967;43.538;-5.646;2023-04-25T01:46:21;8.13;;;4.68;;
69703;SDS011;56967;43.538;-5.646;2023-04-25T01:48:46;7.15;;;4.63;;
69703;SDS011;56967;43.538;-5.646;2023-04-25T01:51:12;9.10;;;4.97;;
69703;SDS011;56967;43.538;-5.646;2023-04-25T01:53:38;6.57;;;4.65;;
69703;SDS011;56967;43.538;-5.646;2023-04-25T01:56:04;7.47;;;4.70;;
69703;SDS011;56967;43.538;-5.646;2023-04-25T01:58:30;6.82;;;4.43;;
69703;SDS011;56967;43.538;-5.646;2023-04-25T02:00:56;8.68;;;4.80;;
69703;SDS011;56967;43.538;-5.646;2023-04-25T02:03:22;11.25;;;4.80;;
69703;SDS011;56967;43.538;-5.646;2023-04-25T02:05:47;9.27;;;5.30;;
69703;SDS011;56967;43.538;-5.646;2023-04-25T02:08:13;10.80;;;4.55;;
69703;SDS011;56967;43.538;-5.646;2023-04-25T02:10:39;9.02;;;5.20;;
69703;SDS011;56967;43.538;-5.646;2023-04-25T02:13:04;11.82;;;4.65;;
69703;SDS011;56967;43.538;-5.646;2023-04-25T02:15:30;12.93;;;5.10;;
69703;SDS011;56967;43.538;-5.646;2023-04-25T02:17:56;15.43;;;5.43;;
69703;SDS011;56967;43.538;-5.646;2023-04-25T02:20:22;9.27;;;5.18;;
69703;SDS011;56967;43.538;-5.646;2023-04-25T02:22:48;12.02;;;4.68;;
69703;SDS011;56967;43.538;-5.646;2023-04-25T02:25:14;9.68;;;5.03;;
69703;SDS011;56967;43.538;-5.646;2023-04-25T02:27:41;11.68;;;5.10;;
69703;SDS011;56967;43.538;-5.646;2023-04-25T02:30:08;8.98;;;4.95;;
69703;SDS011;56967;43.538;-5.646;2023-04-25T02:32:33;10.57;;;4.60;;
69703;SDS011;56967;43.538;-5.646;2023-04-25T02:34:59;10.30;;;5.05;;
69703;SDS011;56967;43.538;-5.646;2023-04-25T02:37:31;10.30;;;4.70;;
69703;SDS011;56967;43.538;-5.646;2023-04-25T02:39:58;7.75;;;4.85;;
69703;SDS011;56967;43.538;-5.646;2023-04-25T02:42:24;12.15;;;4.55;;
69703;SDS011;56967;43.538;-5.646;2023-04-25T02:44:49;7.72;;;4.50;;
69703;SDS011;56967;43.538;-5.646;2023-04-25T02:47:15;9.38;;;4.70;;
69703;SDS011;56967;43.538;-5.646;2023-04-25T02:49:41;8.13;;;4.22;;
69703;SDS011;56967;43.538;-5.646;2023-04-25T02:52:06;12.07;;;4.93;;
69703;SDS011;56967;43.538;-5.646;2023-04-25T02:54:34;7.97;;;4.63;;
69703;SDS011;56967;43.538;-5.646;2023-04-25T02:56:59;10.98;;;5.45;;
69703;SDS011;56967;43.538;-5.646;2023-04-25T02:59:25;7.57;;;5.07;;
69703;SDS011;56967;43.538;-5.646;2023-04-25T03:01:54;7.10;;;4.85;;
69703;SDS011;56967;43.538;-5.646;2023-04-25T03:04:20;7.57;;;4.60;;
69703;SDS011;56967;43.538;-5.646;2023-04-25T03:06:48;11.27;;;5.50;;
69703;SDS011;56967;43.538;-5.646;2023-04-25T03:09:14;12.52;;;5.63;;
69703;SDS011;56967;43.538;-5.646;2023-04-25T03:11:40;9.68;;;5.35;;
69703;SDS011;56967;43.538;-5.646;2023-04-25T03:14:06;9.23;;;4.90;;
69703;SDS011;56967;43.538;-5.646;2023-04-25T03:16:31;13.05;;;5.32;;
69703;SDS011;56967;43.538;-5.646;2023-04-25T03:18:57;7.82;;;4.70;;
69703;SDS011;56967;43.538;-5.646;2023-04-25T03:21:23;7.90;;;4.10;;
69703;SDS011;56967;43.538;-5.646;2023-04-25T03:23:48;8.73;;;4.32;;
69703;SDS011;56967;43.538;-5.646;2023-04-25T03:26:14;6.32;;;4.25;;
69703;SDS011;56967;43.538;-5.646;2023-04-25T03:28:39;6.35;;;4.25;;
69703;SDS011;56967;43.538;-5.646;2023-04-25T03:31:05;6.75;;;4.40;;
69703;SDS011;56967;43.538;-5.646;2023-04-25T03:33:31;9.35;;;4.63;;
69703;SDS011;56967;43.538;-5.646;2023-04-25T03:35:56;9.90;;;4.25;;
69703;SDS011;56967;43.538;-5.646;2023-04-25T03:38:22;6.68;;;4.18;;
69703;SDS011;56967;43.538;-5.646;2023-04-25T03:40:48;9.55;;;4.30;;
69703;SDS011;56967;43.538;-5.646;2023-04-25T03:43:13;7.63;;;4.47;;
69703;SDS011;56967;43.538;-5.646;2023-04-25T03:45:39;9.50;;;4.45;;
69703;SDS011;56967;43.538;-5.646;2023-04-25T03:48:04;10.48;;;4.30;;
69703;SDS011;56967;43.538;-5.646;2023-04-25T03:50:30;7.72;;;4.85;;
69703;SDS011;56967;43.538;-5.646;2023-04-25T03:52:55;7.30;;;4.70;;
69703;SDS011;56967;43.538;-5.646;2023-04-25T03:55:21;12.68;;;5.20;;
69703;SDS011;56967;43.538;-5.646;2023-04-25T03:57:46;9.45;;;4.70;;
69703;SDS011;56967;43.538;-5.646;2023-04-25T04:00:12;7.95;;;5.20;;
69703;SDS011;56967;43.538;-5.646;2023-04-25T04:02:38;8.48;;;4.85;;
69703;SDS011;56967;43.538;-5.646;2023-04-25T04:05:04;7.00;;;4.72;;
69703;SDS011;56967;43.538;-5.646;2023-04-25T04:07:30;6.97;;;4.70;;
69703;SDS011;56967;43.538;-5.646;2023-04-25T04:09:58;6.63;;;4.40;;
69703;SDS011;56967;43.538;-5.646;2023-04-25T04:12:23;8.43;;;4.82;;
69703;SDS011;56967;43.538;-5.646;2023-04-25T04:14:49;5.90;;;4.13;;
69703;SDS011;56967;43.538;-5.646;2023-04-25T04:17:14;8.40;;;4.82;;
69703;SDS011;56967;43.538;-5.646;2023-04-25T04:19:40;9.07;;;4.72;;
69703;SDS011;56967;43.538;-5.646;2023-04-25T04:22:06;7.05;;;4.57;;
69703;SDS011;56967;43.538;-5.646;2023-04-25T04:24:32;8.35;;;4.65;;
69703;SDS011;56967;43.538;-5.646;2023-04-25T04:26:57;10.07;;;4.90;;
69703;SDS011;56967;43.538;-5.646;2023-04-25T04:29:24;8.30;;;4.78;;
69703;SDS011;56967;43.538;-5.646;2023-04-25T04:31:50;10.15;;;4.57;;
69703;SDS011;56967;43.538;-5.646;2023-04-25T04:34:17;7.80;;;4.70;;
69703;SDS011;56967;43.538;-5.646;2023-04-25T04:36:43;10.00;;;4.72;;
69703;SDS011;56967;43.538;-5.646;2023-04-25T04:39:11;9.65;;;4.68;;
69703;SDS011;56967;43.538;-5.646;2023-04-25T04:41:37;8.40;;;5.15;;
69703;SDS011;56967;43.538;-5.646;2023-04-25T04:44:02;6.43;;;4.75;;
69703;SDS011;56967;43.538;-5.646;2023-04-25T04:46:28;8.75;;;4.57;;
69703;SDS011;56967;43.538;-5.646;2023-04-25T04:48:55;6.88;;;4.50;;
69703;SDS011;56967;43.538;-5.646;2023-04-25T04:51:21;10.73;;;5.30;;
69703;SDS011;56967;43.538;-5.646;2023-04-25T04:53:47;7.20;;;4.53;;
69703;SDS011;56967;43.538;-5.646;2023-04-25T04:56:12;9.18;;;5.70;;
69703;SDS011;56967;43.538;-5.646;2023-04-25T04:58:38;10.18;;;5.18;;
69703;SDS011;56967;43.538;-5.646;2023-04-25T05:01:03;8.23;;;4.78;;
69703;SDS011;56967;43.538;-5.646;2023-04-25T05:03:29;8.90;;;5.30;;
69703;SDS011;56967;43.538;-5.646;2023-04-25T05:05:57;12.18;;;4.93;;
69703;SDS011;56967;43.538;-5.646;2023-04-25T05:08:27;8.65;;;4.65;;
69703;SDS011;56967;43.538;-5.646;2023-04-25T05:10:55;7.97;;;4.72;;
69703;SDS011;56967;43.538;-5.646;2023-04-25T05:13:24;7.75;;;4.47;;
69703;SDS011;56967;43.538;-5.646;2023-04-25T05:15:49;6.43;;;4.57;;
69703;SDS011;56967;43.538;-5.646;2023-04-25T05:18:15;7.97;;;4.53;;
69703;SDS011;56967;43.538;-5.646;2023-04-25T05:20:46;6.90;;;4.68;;
69703;SDS011;56967;43.538;-5.646;2023-04-25T05:23:12;7.38;;;4.60;;
69703;SDS011;56967;43.538;-5.646;2023-04-25T05:25:40;6.43;;;4.18;;
69703;SDS011;56967;43.538;-5.646;2023-04-25T05:28:05;8.02;;;4.15;;
69703;SDS011;56967;43.538;-5.646;2023-04-25T05:30:31;10.45;;;4.47;;
69703;SDS011;56967;43.538;-5.646;2023-04-25T05:32:57;10.35;;;3.78;;
69703;SDS011;56967;43.538;-5.646;2023-04-25T05:35:22;7.95;;;3.67;;
69703;SDS011;56967;43.538;-5.646;2023-04-25T05:37:48;4.45;;;3.60;;
69703;SDS011;56967;43.538;-5.646;2023-04-25T05:40:13;8.65;;;4.35;;
69703;SDS011;56967;43.538;-5.646;2023-04-25T05:42:42;6.30;;;4.15;;
69703;SDS011;56967;43.538;-5.646;2023-04-25T05:45:11;8.95;;;4.25;;
69703;SDS011;56967;43.538;-5.646;2023-04-25T05:47:39;6.57;;;3.90;;
69703;SDS011;56967;43.538;-5.646;2023-04-25T05:50:05;9.52;;;4.70;;
69703;SDS011;56967;43.538;-5.646;2023-04-25T05:52:34;7.07;;;3.80;;
69703;SDS011;56967;43.538;-5.646;2023-04-25T05:55:05;6.68;;;4.18;;
69703;SDS011;56967;43.538;-5.646;2023-04-25T05:57:31;7.97;;;4.20;;
69703;SDS011;56967;43.538;-5.646;2023-04-25T05:59:57;8.82;;;4.90;;
69703;SDS011;56967;43.538;-5.646;2023-04-25T06:02:22;9.00;;;4.22;;
69703;SDS011;56967;43.538;-5.646;2023-04-25T06:04:49;6.63;;;4.60;;
69703;SDS011;56967;43.538;-5.646;2023-04-25T06:07:15;8.43;;;4.78;;
69703;SDS011;56967;43.538;-5.646;2023-04-25T06:09:41;7.82;;;4.43;;
69703;SDS011;56967;43.538;-5.646;2023-04-25T06:12:07;10.18;;;4.32;;
69703;SDS011;56967;43.538;-5.646;2023-04-25T06:14:33;6.80;;;4.38;;
69703;SDS011;56967;43.538;-5.646;2023-04-25T06:16:59;8.30;;;4.72;;
69703;SDS011;56967;43.538;-5.646;2023-04-25T06:19:24;9.65;;;4.15;;
69703;SDS011;56967;43.538;-5.646;2023-04-25T06:21:50;6.32;;;3.67;;
69703;SDS011;56967;43.538;-5.646;2023-04-25T06:24:15;6.85;;;4.13;;
69703;SDS011;56967;43.538;-5.646;2023-04-25T06:26:41;6.57;;;3.80;;
69703;SDS011;56967;43.538;-5.646;2023-04-25T06:29:06;4.97;;;3.80;;
69703;SDS011;56967;43.538;-5.646;2023-04-25T06:31:32;9.10;;;3.60;;
69703;SDS011;56967;43.538;-5.646;2023-04-25T06:33:58;6.57;;;4.00;;
69703;SDS011;56967;43.538;-5.646;2023-04-25T06:36:24;7.38;;;3.83;;
69703;SDS011;56967;43.538;-5.646;2023-04-25T06:38:51;11.27;;;4.13;;
69703;SDS011;56967;43.538;-5.646;2023-04-25T06:41:17;9.20;;;4.10;;
69703;SDS011;56967;43.538;-5.646;2023-04-25T06:43:43;7.30;;;3.90;;
69703;SDS011;56967;43.538;-5.646;2023-04-25T06:46:09;9.05;;;4.03;;
69703;SDS011;56967;43.538;-5.646;2023-04-25T06:48:35;6.25;;;3.40;;
69703;SDS011;56967;43.538;-5.646;2023-04-25T06:51:00;7.78;;;3.28;;
69703;SDS011;56967;43.538;-5.646;2023-04-25T06:53:25;10.65;;;4.97;;
69703;SDS011;56967;43.538;-5.646;2023-04-25T06:55:51;6.75;;;4.07;;
69703;SDS011;56967;43.538;-5.646;2023-04-25T06:58:17;8.38;;;4.45;;
69703;SDS011;56967;43.538;-5.646;2023-04-25T07:00:43;7.45;;;3.42;;
69703;SDS011;56967;43.538;-5.646;2023-04-25T07:03:08;5.18;;;3.30;;
69703;SDS011;56967;43.538;-5.646;2023-04-25T07:05:34;8.88;;;3.60;;
69703;SDS011;56967;43.538;-5.646;2023-04-25T07:08:00;8.65;;;4.38;;
69703;SDS011;56967;43.538;-5.646;2023-04-25T07:10:26;7.30;;;4.30;;
69703;SDS011;56967;43.538;-5.646;2023-04-25T07:12:51;9.63;;;5.10;;
69703;SDS011;56967;43.538;-5.646;2023-04-25T07:15:17;6.18;;;3.90;;
69703;SDS011;56967;43.538;-5.646;2023-04-25T07:17:42;10.68;;;5.25;;
69703;SDS011;56967;43.538;-5.646;2023-04-25T07:20:08;19.75;;;5.75;;
69703;SDS011;56967;43.538;-5.646;2023-04-25T07:22:35;21.10;;;6.40;;
69703;SDS011;56967;43.538;-5.646;2023-04-25T07:25:00;17.45;;;6.07;;
69703;SDS011;56967;43.538;-5.646;2023-04-25T07:27:26;21.58;;;6.75;;
69703;SDS011;56967;43.538;-5.646;2023-04-25T07:29:51;21.30;;;7.20;;
69703;SDS011;56967;43.538;-5.646;2023-04-25T07:32:17;27.92;;;7.95;;
69703;SDS011;56967;43.538;-5.646;2023-04-25T07:34:42;33.88;;;8.40;;
69703;SDS011;56967;43.538;-5.646;2023-04-25T07:37:08;34.63;;;8.82;;
69703;SDS011;56967;43.538;-5.646;2023-04-25T07:39:33;26.55;;;8.77;;
69703;SDS011;56967;43.538;-5.646;2023-04-25T07:42:00;21.33;;;7.60;;
69703;SDS011;56967;43.538;-5.646;2023-04-25T07:44:27;28.40;;;8.07;;
69703;SDS011;56967;43.538;-5.646;2023-04-25T07:46:52;25.98;;;8.00;;
69703;SDS011;56967;43.538;-5.646;2023-04-25T07:49:18;23.20;;;7.55;;
69703;SDS011;56967;43.538;-5.646;2023-04-25T07:51:43;23.80;;;9.00;;
69703;SDS011;56967;43.538;-5.646;2023-04-25T07:54:09;39.20;;;9.55;;
69703;SDS011;56967;43.538;-5.646;2023-04-25T07:56:38;31.98;;;8.80;;
69703;SDS011;56967;43.538;-5.646;2023-04-25T07:59:04;26.83;;;8.25;;
69703;SDS011;56967;43.538;-5.646;2023-04-25T08:01:30;24.25;;;6.70;;
69703;SDS011;56967;43.538;-5.646;2023-04-25T08:03:55;24.52;;;7.57;;
69703;SDS011;56967;43.538;-5.646;2023-04-25T08:06:21;22.40;;;7.38;;
69703;SDS011;56967;43.538;-5.646;2023-04-25T08:08:46;28.58;;;7.15;;
69703;SDS011;56967;43.538;-5.646;2023-04-25T08:11:12;15.88;;;6.18;;
69703;SDS011;56967;43.538;-5.646;2023-04-25T08:13:37;15.30;;;5.70;;
69703;SDS011;56967;43.538;-5.646;2023-04-25T08:16:03;13.73;;;5.53;;
69703;SDS011;56967;43.538;-5.646;2023-04-25T08:18:29;16.17;;;5.55;;
69703;SDS011;56967;43.538;-5.646;2023-04-25T08:20:54;17.25;;;6.38;;
69703;SDS011;56967;43.538;-5.646;2023-04-25T08:23:20;15.07;;;5.25;;
69703;SDS011;56967;43.538;-5.646;2023-04-25T08:25:45;21.95;;;6.35;;
69703;SDS011;56967;43.538;-5.646;2023-04-25T08:28:11;14.98;;;6.22;;
69703;SDS011;56967;43.538;-5.646;2023-04-25T08:30:36;25.30;;;5.93;;
69703;SDS011;56967;43.538;-5.646;2023-04-25T08:33:02;22.38;;;5.35;;
69703;SDS011;56967;43.538;-5.646;2023-04-25T08:35:28;15.70;;;4.47;;
69703;SDS011;56967;43.538;-5.646;2023-04-25T08:37:53;21.73;;;5.15;;
69703;SDS011;56967;43.538;-5.646;2023-04-25T08:40:19;19.73;;;4.78;;
69703;SDS011;56967;43.538;-5.646;2023-04-25T08:42:51;11.75;;;3.72;;
69703;SDS011;56967;43.538;-5.646;2023-04-25T08:45:18;19.30;;;4.20;;
69703;SDS011;56967;43.538;-5.646;2023-04-25T08:47:43;12.13;;;3.47;;
69703;SDS011;56967;43.538;-5.646;2023-04-25T08:50:11;15.57;;;4.70;;
69703;SDS011;56967;43.538;-5.646;2023-04-25T08:52:37;12.88;;;3.00;;
69703;SDS011;56967;43.538;-5.646;2023-04-25T08:55:09;8.35;;;2.90;;
69703;SDS011;56967;43.538;-5.646;2023-04-25T08:57:34;10.02;;;3.58;;
69703;SDS011;56967;43.538;-5.646;2023-04-25T09:00:04;13.88;;;3.25;;
69703;SDS011;56967;43.538;-5.646;2023-04-25T09:02:30;12.45;;;3.30;;
69703;SDS011;56967;43.538;-5.646;2023-04-25T09:04:56;28.35;;;4.63;;
69703;SDS011;56967;43.538;-5.646;2023-04-25T09:07:22;20.15;;;5.03;;
69703;SDS011;56967;43.538;-5.646;2023-04-25T09:09:48;21.27;;;3.85;;
69703;SDS011;56967;43.538;-5.646;2023-04-25T09:12:13;15.88;;;4.22;;
69703;SDS011;56967;43.538;-5.646;2023-04-25T09:14:39;21.02;;;3.70;;
69703;SDS011;56967;43.538;-5.646;2023-04-25T09:17:04;11.45;;;2.90;;
69703;SDS011;56967;43.538;-5.646;2023-04-25T09:19:33;12.07;;;3.30;;
69703;SDS011;56967;43.538;-5.646;2023-04-25T09:22:01;16.50;;;3.20;;
69703;SDS011;56967;43.538;-5.646;2023-04-25T09:24:41;11.13;;;2.97;;
69703;SDS011;56967;43.538;-5.646;2023-04-25T09:27:09;14.13;;;2.90;;
69703;SDS011;56967;43.538;-5.646;2023-04-25T09:29:37;14.45;;;3.58;;
69703;SDS011;56967;43.538;-5.646;2023-04-25T09:32:23;10.18;;;3.33;;
69703;SDS011;56967;43.538;-5.646;2023-04-25T09:34:50;10.73;;;3.05;;
69703;SDS011;56967;43.538;-5.646;2023-04-25T09:37:17;12.00;;;3.05;;
69703;SDS011;56967;43.538;-5.646;2023-04-25T09:40:03;11.68;;;3.08;;
69703;SDS011;56967;43.538;-5.646;2023-04-25T09:42:31;11.43;;;3.35;;
69703;SDS011;56967;43.538;-5.646;2023-04-25T09:45:00;14.80;;;3.50;;
69703;SDS011;56967;43.538;-5.646;2023-04-25T09:47:27;10.45;;;3.10;;
69703;SDS011;56967;43.538;-5.646;2023-04-25T09:49:53;9.55;;;2.50;;
69703;SDS011;56967;43.538;-5.646;2023-04-25T09:52:21;11.60;;;2.70;;
69703;SDS011;56967;43.538;-5.646;2023-04-25T09:54:48;7.88;;;2.75;;
69703;SDS011;56967;43.538;-5.646;2023-04-25T09:57:18;8.75;;;2.70;;
69703;SDS011;56967;43.538;-5.646;2023-04-25T09:59:46;8.52;;;2.88;;
69703;SDS011;56967;43.538;-5.646;2023-04-25T10:02:14;13.90;;;3.13;;
69703;SDS011;56967;43.538;-5.646;2023-04-25T10:04:41;9.60;;;3.13;;
69703;SDS011;56967;43.538;-5.646;2023-04-25T10:07:12;12.30;;;3.20;;
69703;SDS011;56967;43.538;-5.646;2023-04-25T10:09:38;14.45;;;4.13;;
69703;SDS011;56967;43.538;-5.646;2023-04-25T10:12:05;11.40;;;3.47;;
69703;SDS011;56967;43.538;-5.646;2023-04-25T10:14:32;9.35;;;2.95;;
69703;SDS011;56967;43.538;-5.646;2023-04-25T10:16:58;9.98;;;3.13;;
69703;SDS011;56967;43.538;-5.646;2023-04-25T10:19:25;14.48;;;3.72;;
69703;SDS011;56967;43.538;-5.646;2023-04-25T10:22:34;14.57;;;3.42;;
69703;SDS011;56967;43.538;-5.646;2023-04-25T10:24:43;10.75;;;3.08;;
69703;SDS011;56967;43.538;-5.646;2023-04-25T10:27:11;8.10;;;2.90;;
69703;SDS011;56967;43.538;-5.646;2023-04-25T10:29:37;8.02;;;3.25;;
69703;SDS011;56967;43.538;-5.646;2023-04-25T10:32:03;5.30;;;2.45;;
69703;SDS011;56967;43.538;-5.646;2023-04-25T10:34:39;8.60;;;3.03;;
69703;SDS011;56967;43.538;-5.646;2023-04-25T10:37:08;9.05;;;2.92;;
69703;SDS011;56967;43.538;-5.646;2023-04-25T10:39:34;11.30;;;2.60;;
69703;SDS011;56967;43.538;-5.646;2023-04-25T10:42:01;8.55;;;2.90;;
69703;SDS011;56967;43.538;-5.646;2023-04-25T10:44:28;6.50;;;2.83;;
69703;SDS011;56967;43.538;-5.646;2023-04-25T10:46:55;8.88;;;2.95;;
69703;SDS011;56967;43.538;-5.646;2023-04-25T10:49:28;7.72;;;2.75;;
69703;SDS011;56967;43.538;-5.646;2023-04-25T10:54:54;12.75;;;3.08;;
69703;SDS011;56967;43.538;-5.646;2023-04-25T10:57:44;12.63;;;2.90;;
69703;SDS011;56967;43.538;-5.646;2023-04-25T11:00:16;12.00;;;3.17;;
69703;SDS011;56967;43.538;-5.646;2023-04-25T11:02:47;10.30;;;3.13;;
69703;SDS011;56967;43.538;-5.646;2023-04-25T11:05:37;14.57;;;3.72;;
69703;SDS011;56967;43.538;-5.646;2023-04-25T11:08:02;11.65;;;3.38;;
69703;SDS011;56967;43.538;-5.646;2023-04-25T11:10:32;11.38;;;3.20;;
69703;SDS011;56967;43.538;-5.646;2023-04-25T11:13:00;10.30;;;2.92;;
69703;SDS011;56967;43.538;-5.646;2023-04-25T11:15:26;5.93;;;2.90;;
69703;SDS011;56967;43.538;-5.646;2023-04-25T11:17:52;8.45;;;2.90;;
69703;SDS011;56967;43.538;-5.646;2023-04-25T11:20:18;11.50;;;3.17;;
69703;SDS011;56967;43.538;-5.646;2023-04-25T11:22:45;7.47;;;2.85;;
69703;SDS011;56967;43.538;-5.646;2023-04-25T11:25:12;11.82;;;2.85;;
69703;SDS011;56967;43.538;-5.646;2023-04-25T11:27:58;9.93;;;3.08;;
69703;SDS011;56967;43.538;-5.646;2023-04-25T11:30:26;13.07;;;3.03;;
69703;SDS011;56967;43.538;-5.646;2023-04-25T11:32:52;9.00;;;2.72;;
69703;SDS011;56967;43.538;-5.646;2023-04-25T11:35:18;8.20;;;2.30;;
69703;SDS011;56967;43.538;-5.646;2023-04-25T11:37:44;11.93;;;2.65;;
69703;SDS011;56967;43.538;-5.646;2023-04-25T11:40:10;6.53;;;2.28;;
69703;SDS011;56967;43.538;-5.646;2023-04-25T11:42:46;9.93;;;2.72;;
69703;SDS011;56967;43.538;-5.646;2023-04-25T11:45:12;7.45;;;2.50;;
69703;SDS011;56967;43.538;-5.646;2023-04-25T11:47:38;7.50;;;2.47;;
69703;SDS011;56967;43.538;-5.646;2023-04-25T11:50:05;7.47;;;2.70;;
69703;SDS011;56967;43.538;-5.646;2023-04-25T11:55:08;5.45;;;2.15;;
69703;SDS011;56967;43.538;-5.646;2023-04-25T11:57:37;4.75;;;2.28;;
69703;SDS011;56967;43.538;-5.646;2023-04-25T12:02:42;8.35;;;2.70;;
69703;SDS011;56967;43.538;-5.646;2023-04-25T12:05:09;9.02;;;2.78;;
69703;SDS011;56967;43.538;-5.646;2023-04-25T12:07:35;7.40;;;2.55;;
69703;SDS011;56967;43.538;-5.646;2023-04-25T12:10:06;9.90;;;2.97;;
69703;SDS011;56967;43.538;-5.646;2023-04-25T12:12:33;8.63;;;2.55;;
69703;SDS011;56967;43.538;-5.646;2023-04-25T12:15:09;9.70;;;2.58;;
69703;SDS011;56967;43.538;-5.646;2023-04-25T12:17:36;6.72;;;2.08;;
69703;SDS011;56967;43.538;-5.646;2023-04-25T12:20:09;6.07;;;2.20;;
69703;SDS011;56967;43.538;-5.646;2023-04-25T12:22:37;10.23;;;2.58;;
69703;SDS011;56967;43.538;-5.646;2023-04-25T12:25:03;5.50;;;2.20;;
69703;SDS011;56967;43.538;-5.646;2023-04-25T12:27:30;11.25;;;2.47;;
69703;SDS011;56967;43.538;-5.646;2023-04-25T12:29:57;5.07;;;2.17;;
69703;SDS011;56967;43.538;-5.646;2023-04-25T12:32:23;7.32;;;3.30;;
69703;SDS011;56967;43.538;-5.646;2023-04-25T12:34:49;9.18;;;2.53;;
69703;SDS011;56967;43.538;-5.646;2023-04-25T12:37:15;6.93;;;2.42;;
69703;SDS011;56967;43.538;-5.646;2023-04-25T12:39:41;9.15;;;2.92;;
69703;SDS011;56967;43.538;-5.646;2023-04-25T12:42:07;9.57;;;2.60;;
69703;SDS011;56967;43.538;-5.646;2023-04-25T12:44:38;6.85;;;2.50;;
69703;SDS011;56967;43.538;-5.646;2023-04-25T12:47:04;14.95;;;3.70;;
69703;SDS011;56967;43.538;-5.646;2023-04-25T12:49:30;11.38;;;2.70;;
69703;SDS011;56967;43.538;-5.646;2023-04-25T12:51:56;10.23;;;3.28;;
69703;SDS011;56967;43.538;-5.646;2023-04-25T12:54:22;8.20;;;2.60;;
69703;SDS011;56967;43.538;-5.646;2023-04-25T12:56:48;7.82;;;2.45;;
69703;SDS011;56967;43.538;-5.646;2023-04-25T12:59:15;11.95;;;2.83;;
69703;SDS011;56967;43.538;-5.646;2023-04-25T13:01:41;13.45;;;3.45;;
69703;SDS011;56967;43.538;-5.646;2023-04-25T13:04:06;13.85;;;2.83;;
69703;SDS011;56967;43.538;-5.646;2023-04-25T13:06:32;17.55;;;3.33;;
69703;SDS011;56967;43.538;-5.646;2023-04-25T13:08:57;15.82;;;3.20;;
69703;SDS011;56967;43.538;-5.646;2023-04-25T13:11:23;12.55;;;3.17;;
69703;SDS011;56967;43.538;-5.646;2023-04-25T13:13:48;15.88;;;2.58;;
69703;SDS011;56967;43.538;-5.646;2023-04-25T13:16:14;13.45;;;3.35;;
69703;SDS011;56967;43.538;-5.646;2023-04-25T13:18:40;8.05;;;2.30;;
69703;SDS011;56967;43.538;-5.646;2023-04-25T13:21:05;12.32;;;2.60;;
69703;SDS011;56967;43.538;-5.646;2023-04-25T13:23:31;6.55;;;1.90;;
69703;SDS011;56967;43.538;-5.646;2023-04-25T13:25:56;6.28;;;2.30;;
69703;SDS011;56967;43.538;-5.646;2023-04-25T13:28:23;4.25;;;1.90;;
69703;SDS011;56967;43.538;-5.646;2023-04-25T13:30:51;4.70;;;1.80;;
69703;SDS011;56967;43.538;-5.646;2023-04-25T13:33:17;5.63;;;2.15;;
69703;SDS011;56967;43.538;-5.646;2023-04-25T13:35:43;11.60;;;2.78;;
69703;SDS011;56967;43.538;-5.646;2023-04-25T13:38:12;11.27;;;3.53;;
69703;SDS011;56967;43.538;-5.646;2023-04-25T13:40:38;9.38;;;2.75;;
69703;SDS011;56967;43.538;-5.646;2023-04-25T13:43:04;10.68;;;3.75;;
69703;SDS011;56967;43.538;-5.646;2023-04-25T13:45:31;12.77;;;2.58;;
69703;SDS011;56967;43.538;-5.646;2023-04-25T13:47:57;12.48;;;2.92;;
69703;SDS011;56967;43.538;-5.646;2023-04-25T13:50:22;12.30;;;2.78;;
69703;SDS011;56967;43.538;-5.646;2023-04-25T13:52:48;10.48;;;3.88;;
69703;SDS011;56967;43.538;-5.646;2023-04-25T13:55:14;19.13;;;4.15;;
69703;SDS011;56967;43.538;-5.646;2023-04-25T13:57:39;5.65;;;2.85;;
69703;SDS011;56967;43.538;-5.646;2023-04-25T14:00:05;4.05;;;2.05;;
69703;SDS011;56967;43.538;-5.646;2023-04-25T14:02:34;7.82;;;2.15;;
69703;SDS011;56967;43.538;-5.646;2023-04-25T14:05:02;6.53;;;2.10;;
69703;SDS011;56967;43.538;-5.646;2023-04-25T14:07:28;4.20;;;1.73;;
69703;SDS011;56967;43.538;-5.646;2023-04-25T14:09:55;4.32;;;1.55;;
69703;SDS011;56967;43.538;-5.646;2023-04-25T14:12:22;4.72;;;1.95;;
69703;SDS011;56967;43.538;-5.646;2023-04-25T14:14:48;6.38;;;1.90;;
69703;SDS011;56967;43.538;-5.646;2023-04-25T14:17:13;6.60;;;2.30;;
69703;SDS011;56967;43.538;-5.646;2023-04-25T14:19:39;12.35;;;2.97;;
69703;SDS011;56967;43.538;-5.646;2023-04-25T14:22:08;14.10;;;2.45;;
69703;SDS011;56967;43.538;-5.646;2023-04-25T14:24:34;17.55;;;2.83;;
69703;SDS011;56967;43.538;-5.646;2023-04-25T14:26:59;12.88;;;3.58;;
69703;SDS011;56967;43.538;-5.646;2023-04-25T14:29:25;12.82;;;3.17;;
69703;SDS011;56967;43.538;-5.646;2023-04-25T14:31:51;8.88;;;2.63;;
69703;SDS011;56967;43.538;-5.646;2023-04-25T14:34:17;8.98;;;2.50;;